MDSDSEGU

Guest
Details From MDSD - Las Americas Intl
To SEGU - Guayauqiil - Simon Bolivar Intl
Flight Number -
Tags decoded
Created
Modified
Stats Distance 1,422 nm / 2,633 km
Max Altitude 0 ft / 0 m
Waypoints 6
Social Downloads 0
Likes 0
Share VATSIM

Download

Looking for another format? Having issues loading an existing format? Contact us
Advertisement - Login to hide

Notes

Requested: MDSD SELAN ELB GIR BOKAN SEGU

Route

MDSD SELAN ELB GIR BOKAN SEGU

ID Type Via Altitude Latitude Longitude Leg Dist Tot Dist Heading (true) Name
O MDSD APT - 0 ft / 0 m 18.42966˚ -69.66893˚ - 0 nm - Las Americas Intl
SELAN FIX - 0 ft / 0 m 13.88417˚ -73.33333˚ 345 nm 345 nm 218° / 217° -
ELB VOR - 0 ft / 0 m 9.04528˚ -73.96722˚ 292 nm 638 nm 187° / 187° EL BANCO VOR-DME
GIR VOR - 0 ft / 0 m 4.19167˚ -74.86583˚ 296 nm 934 nm 190° / 190° GIRARDOT VOR-DME
BOKAN FIX - 0 ft / 0 m 0.80833˚ -77.88167˚ 272 nm 1206 nm 222° / 222° -
O SEGU APT - 0 ft / 0 m -2.15742˚ -79.88356˚ 214 nm 1421 nm 214° / 214° Guayauqiil - Simon Bolivar Intl

Altitude Profile

Advertisement - Login to hide

Weather


0- 5 10 15 20 25 30 35+ Temperature / ° C

Clouds and Precipitation
Forecast for 2018-05-25 00:00 UTC. Updated 4 hours ago

Ground ~20,000 ft ~40,000 ft Winds

MDSD

Details ICAO MDSD (SDQ)
Name Las Americas Intl
Region Dominican Republic
Timezone America/Santo_Domingo (UTC-4.0)
Stats Elevation 59 ft / 18 m (AMSL)
Location 18.429662° -69.668925°
Runways 1
Magnetic Variation 11.568° W

METAR

MDSD 250300Z 05004KT 9999 BKN018 25/22 Q1017

Decode

TAF

Not found

Departure Runways

ID Width Length Bearing (true) Bearing (mag) Surface Threshold Offset Overrun Length
17 200 ft / 61 m 11,051 ft / 3,368 m 160.78° 172.35° Asphalt 0 ft / 0 m 0 ft / 0 m
35 200 ft / 61 m 11,051 ft / 3,368 m 340.79° 352.36° Asphalt 0 ft / 0 m 0 ft / 0 m

SEGU

Details ICAO SEGU (GYE)
Name Guayauqiil - Simon Bolivar Intl
Region Equador
Timezone America/Guayaquil (UTC-5.0)
Stats Elevation 19 ft / 6 m (AMSL)
Location -2.157419° -79.883559°
Runways 1
Magnetic Variation 2.220° W

METAR

SEGU 250300Z 21011KT 9999 FEW026 SCT100 25/20 Q1011 NOSIG RMK A2988

Decode

TAF

TAF TAF SEGU 241645Z 2418/2518 14005KT 9999 SCT020 FM250000 21010KT 9999 SCT020 BKN090 BECMG 2503/2504 FEW020 BECMG 2510/2511 23004KT BECMG 2511/2512 BKN020 SCT100 TX32/2419Z TN22/2511Z

Decode

Destination Runways

ID Width Length Bearing (true) Bearing (mag) Surface Threshold Offset Overrun Length
03 151 ft / 46 m 9,184 ft / 2,799 m 30.43° 32.65° Asphalt 338 ft / 103 m 280 ft / 85 m
21 151 ft / 46 m 9,184 ft / 2,799 m 210.43° 212.65° Asphalt 810 ft / 247 m 230 ft / 70 m

Approach Navaids

Runway Type Ident Frequency Range Bearing (true) Bearing (mag) Slope Elevation
21 Localiser ILG 110.30 MHz 18 nm / 33 km 210.13° 212.35° - 17 ft / 5 m (AMSL)
21 Glidescope ILG 110.30 MHz 10 nm / 19 km 210.43° 212.65° 3.00° 17 ft / 5 m (AMSL)
21 DME ILG 110.30 MHz 18 nm / 33 km - - - 19 ft / 6 m (AMSL)

Popular Alternatives